Time,TemperatureF,DewpointF,PressureIn,WindDirection,WindDirectionDegrees,WindSpeedMPH,WindSpeedGustMPH,Humidity,HourlyPrecipIn,Conditions,Clouds,dailyrainin,SoftwareType,DateUTC
2013-10-17 00:01:00,62.0,60.0,29.95,SSE,156,0.0,0.0,93,0.00,,OVC250,0.00,VWS V14.01,2013-10-17 04:01:00,
2013-10-17 00:02:00,62.0,60.0,29.95,SSE,156,0.0,0.0,93,0.00,,OVC250,0.00,VWS V14.01,2013-10-17 04:02:00,
2013-10-17 00:03:00,62.0,60.0,29.95,SSE,156,0.0,0.0,93,0.00,,OVC250,0.00,VWS V14.01,2013-10-17 04:03:00,
2013-10-17 00:06:00,61.9,59.9,29.95,SSE,156,0.0,0.0,93,0.00,,OVC250,0.00,VWS V14.01,2013-10-17 04:06:00,
2013-10-17 00:11:00,61.7,59.7,29.95,SSE,156,0.0,0.0,93,0.00,,OVC250,0.00,VWS V14.01,2013-10-17 04:11:00,
2013-10-17 00:13:00,61.7,59.7,29.95,SSE,156,0.0,0.0,93,0.00,,OVC250,0.00,VWS V14.01,2013-10-17 04:13:00,
2013-10-17 00:19:00,61.5,59.5,29.95,SSE,156,0.0,0.0,93,0.00,,OVC250,0.00,VWS V14.01,2013-10-17 04:19:00,
2013-10-17 00:25:00,61.4,59.4,29.94,SSE,156,0.0,0.0,93,0.00,,OVC250,0.00,VWS V14.01,2013-10-17 04:25:00,
2013-10-17 00:31:00,61.3,59.3,29.94,SSE,156,0.0,0.0,93,0.00,,OVC250,0.00,VWS V14.01,2013-10-17 04:31:00,
2013-10-17 00:37:00,61.2,59.5,29.94,SSE,156,0.0,0.0,94,0.00,,OVC250,0.00,VWS V14.01,2013-10-17 04:37:00,
2013-10-17 00:43:00,61.1,59.4,29.94,SSE,156,0.0,0.0,94,0.00,,OVC250,0.00,VWS V14.01,2013-10-17 04:43:00,
2013-10-17 00:48:00,61.1,59.4,29.94,SSE,156,0.0,0.0,94,0.00,,OVC250,0.00,VWS V14.01,2013-10-17 04:48:00,
2013-10-17 00:53:00,61.1,59.4,29.94,SSE,156,0.0,0.0,94,0.00,,OVC250,0.00,VWS V14.01,2013-10-17 04:53:00,
2013-10-17 00:58:00,61.0,59.3,29.94,SSE,156,0.0,0.0,94,0.00,,OVC250,0.00,VWS V14.01,2013-10-17 04:58:00,
2013-10-17 01:03:00,61.0,59.3,29.94,SSE,156,0.0,0.0,94,0.00,,OVC210,0.00,VWS V14.01,2013-10-17 05:03:00,
2013-10-17 01:08:00,61.0,59.3,29.94,SSE,156,0.0,0.0,94,0.00,,OVC210,0.00,VWS V14.01,2013-10-17 05:08:00,
2013-10-17 01:13:00,61.0,59.3,29.94,SSE,156,0.0,0.0,94,0.00,,OVC210,0.00,VWS V14.01,2013-10-17 05:13:00,
2013-10-17 01:18:00,60.9,59.2,29.94,SSE,156,0.0,0.0,94,0.00,,OVC210,0.00,VWS V14.01,2013-10-17 05:18:00,
2013-10-17 01:23:00,60.9,59.2,29.93,SSE,156,0.0,0.0,94,0.00,,OVC210,0.00,VWS V14.01,2013-10-17 05:23:00,
2013-10-17 01:28:00,60.9,59.2,29.93,SSE,156,0.0,0.0,94,0.00,,OVC210,0.00,VWS V14.01,2013-10-17 05:28:00,
2013-10-17 01:33:00,60.9,59.2,29.93,SSE,156,0.0,0.0,94,0.00,,OVC210,0.00,VWS V14.01,2013-10-17 05:33:00,
2013-10-17 01:38:00,60.9,59.2,29.93,SSE,156,0.0,0.0,94,0.00,,OVC210,0.00,VWS V14.01,2013-10-17 05:38:00,
2013-10-17 01:43:00,60.8,59.1,29.93,SSE,156,0.0,0.0,94,0.00,,OVC210,0.00,VWS V14.01,2013-10-17 05:43:00,
2013-10-17 01:48:00,60.8,59.1,29.93,SSE,156,0.0,0.0,94,0.00,,OVC210,0.00,VWS V14.01,2013-10-17 05:48:00,
2013-10-17 01:53:00,60.7,59.0,29.93,SSE,156,0.0,0.0,94,0.00,,OVC210,0.00,VWS V14.01,2013-10-17 05:53:00,
2013-10-17 01:58:00,60.7,59.0,29.93,SSE,156,0.0,0.0,94,0.00,,OVC210,0.00,VWS V14.01,2013-10-17 05:58:00,
2013-10-17 02:03:00,60.6,58.9,29.93,SSE,156,0.0,0.0,94,0.00,,OVC210,0.00,VWS V14.01,2013-10-17 06:03:00,
2013-10-17 02:08:00,60.5,58.8,29.93,SSE,156,0.0,0.0,94,0.00,,OVC210,0.00,VWS V14.01,2013-10-17 06:08:00,
2013-10-17 02:13:00,60.5,58.8,29.93,SSE,156,0.0,0.0,94,0.00,,OVC210,0.00,VWS V14.01,2013-10-17 06:13:00,
2013-10-17 02:18:00,60.5,58.8,29.93,SSE,156,0.0,0.0,94,0.00,,OVC210,0.00,VWS V14.01,2013-10-17 06:18:00,
2013-10-17 02:23:00,60.4,58.7,29.93,SSE,156,0.0,0.0,94,0.00,,OVC210,0.00,VWS V14.01,2013-10-17 06:23:00,
2013-10-17 02:28:00,60.4,58.7,29.93,SSE,156,0.0,0.0,94,0.00,,OVC210,0.00,VWS V14.01,2013-10-17 06:28:00,
2013-10-17 02:33:00,60.3,58.9,29.93,SSE,156,0.0,0.0,95,0.00,,OVC210,0.00,VWS V14.01,2013-10-17 06:33:00,
2013-10-17 02:38:00,60.3,58.9,29.93,SSE,156,0.0,0.0,95,0.00,,OVC210,0.00,VWS V14.01,2013-10-17 06:38:00,
2013-10-17 02:43:00,60.4,59.0,29.93,SSE,156,0.0,0.0,95,0.00,,OVC210,0.00,VWS V14.01,2013-10-17 06:43:00,
2013-10-17 02:48:00,60.3,58.9,29.92,SSE,156,0.0,0.0,95,0.00,,OVC210,0.00,VWS V14.01,2013-10-17 06:48:00,
2013-10-17 02:53:00,60.3,58.9,29.92,SSE,156,0.0,0.0,95,0.00,,OVC210,0.00,VWS V14.01,2013-10-17 06:53:00,
2013-10-17 02:58:00,60.3,58.9,29.92,SSE,156,0.0,0.0,95,0.00,,OVC210,0.00,VWS V14.01,2013-10-17 06:58:00,
2013-10-17 03:03:00,60.3,58.9,29.92,SSE,156,0.0,0.0,95,0.00,,OVC210,0.00,VWS V14.01,2013-10-17 07:03:00,
2013-10-17 03:08:00,60.3,58.9,29.92,SSE,156,0.0,0.0,95,0.00,,OVC210,0.00,VWS V14.01,2013-10-17 07:08:00,
2013-10-17 03:13:00,60.3,58.9,29.91,SSE,156,0.0,0.0,95,0.00,,OVC210,0.00,VWS V14.01,2013-10-17 07:13:00,
2013-10-17 03:18:00,60.3,58.9,29.91,SSE,156,0.0,0.0,95,0.00,,OVC210,0.00,VWS V14.01,2013-10-17 07:18:00,
2013-10-17 03:23:00,60.3,58.9,29.91,SSE,156,0.0,0.0,95,0.00,,OVC210,0.00,VWS V14.01,2013-10-17 07:23:00,
2013-10-17 03:28:00,60.3,58.9,29.91,SSE,156,0.0,0.0,95,0.00,,OVC210,0.00,VWS V14.01,2013-10-17 07:28:00,
2013-10-17 03:33:00,60.3,58.9,29.91,SSE,156,0.0,0.0,95,0.00,,OVC210,0.00,VWS V14.01,2013-10-17 07:33:00,
2013-10-17 03:38:00,60.3,58.9,29.91,SSE,156,0.0,0.0,95,0.00,,OVC210,0.00,VWS V14.01,2013-10-17 07:38:00,
2013-10-17 03:43:00,60.3,58.9,29.91,SSE,156,0.0,0.0,95,0.00,,OVC210,0.00,VWS V14.01,2013-10-17 07:43:00,
2013-10-17 03:48:00,60.3,58.9,29.91,SSE,156,0.0,0.0,95,0.00,,OVC210,0.00,VWS V14.01,2013-10-17 07:48:00,
2013-10-17 03:53:00,60.3,58.9,29.91,SSE,156,0.0,0.0,95,0.00,,OVC210,0.00,VWS V14.01,2013-10-17 07:53:00,
2013-10-17 03:58:00,60.3,58.9,29.91,SSE,156,0.0,0.0,95,0.00,,OVC210,0.00,VWS V14.01,2013-10-17 07:58:00,
2013-10-17 04:03:00,60.2,58.8,29.91,SSE,156,0.0,0.0,95,0.00,,BKN160,0.00,VWS V14.01,2013-10-17 08:03:00,
2013-10-17 04:08:00,60.1,58.7,29.91,SSE,156,0.0,0.0,95,0.00,,BKN160,0.00,VWS V14.01,2013-10-17 08:08:00,
2013-10-17 04:12:00,60.0,58.6,29.91,SSE,156,0.0,0.0,95,0.00,,BKN160,0.00,VWS V14.01,2013-10-17 08:12:00,
2013-10-17 04:17:00,60.0,58.6,29.91,SSE,156,0.0,0.0,95,0.00,,BKN160,0.00,VWS V14.01,2013-10-17 08:17:00,
2013-10-17 04:22:00,60.0,58.6,29.91,SSE,156,0.0,0.0,95,0.00,,BKN160,0.00,VWS V14.01,2013-10-17 08:22:00,
2013-10-17 04:27:00,60.0,58.6,29.91,SSE,156,0.0,0.0,95,0.00,,BKN160,0.00,VWS V14.01,2013-10-17 08:27:00,
2013-10-17 04:33:00,59.9,58.5,29.91,SSE,156,0.0,0.0,95,0.00,,BKN160,0.00,VWS V14.01,2013-10-17 08:33:00,
2013-10-17 04:38:00,59.9,58.5,29.91,SSE,156,0.0,0.0,95,0.00,,BKN160,0.00,VWS V14.01,2013-10-17 08:38:00,
2013-10-17 04:44:00,59.9,58.5,29.91,SSE,156,0.0,0.0,95,0.00,,BKN160,0.00,VWS V14.01,2013-10-17 08:44:00,
2013-10-17 04:49:00,59.8,58.4,29.91,SSE,156,0.0,0.0,95,0.00,,BKN160,0.00,VWS V14.01,2013-10-17 08:49:00,
2013-10-17 04:54:00,59.8,58.4,29.91,SSE,156,0.0,0.0,95,0.00,,BKN160,0.00,VWS V14.01,2013-10-17 08:54:00,
2013-10-17 04:59:00,59.7,58.3,29.90,SSE,156,0.0,0.0,95,0.00,,BKN160,0.00,VWS V14.01,2013-10-17 08:59:00,
2013-10-17 05:04:00,59.7,58.3,29.90,SSE,156,0.0,0.0,95,0.00,,OVC095,0.00,VWS V14.01,2013-10-17 09:04:00,
2013-10-17 05:09:00,59.7,58.3,29.90,SSE,156,0.0,0.0,95,0.00,,OVC095,0.00,VWS V14.01,2013-10-17 09:09:00,
2013-10-17 05:14:00,59.7,58.3,29.90,SSE,156,0.0,0.0,95,0.00,,OVC095,0.00,VWS V14.01,2013-10-17 09:14:00,
2013-10-17 05:19:00,59.7,58.3,29.91,SSE,156,0.0,0.0,95,0.00,,OVC095,0.00,VWS V14.01,2013-10-17 09:19:00,
2013-10-17 05:24:00,59.7,58.3,29.90,SSE,156,0.0,0.0,95,0.00,,OVC095,0.00,VWS V14.01,2013-10-17 09:24:00,
2013-10-17 05:29:00,59.7,58.3,29.90,SSE,156,0.0,0.0,95,0.00,,OVC095,0.00,VWS V14.01,2013-10-17 09:29:00,
2013-10-17 05:34:00,59.7,58.3,29.91,SSE,156,0.0,0.0,95,0.00,,OVC095,0.00,VWS V14.01,2013-10-17 09:34:00,
2013-10-17 05:39:00,59.6,58.2,29.91,SSE,156,0.0,0.0,95,0.00,,OVC095,0.00,VWS V14.01,2013-10-17 09:39:00,
2013-10-17 05:44:00,59.6,58.2,29.90,SSE,156,0.0,0.0,95,0.00,,OVC095,0.00,VWS V14.01,2013-10-17 09:44:00,
2013-10-17 05:49:00,59.6,58.2,29.91,SSE,156,0.0,0.0,95,0.00,,OVC095,0.00,VWS V14.01,2013-10-17 09:49:00,
2013-10-17 05:54:00,59.7,58.3,29.91,SSE,156,0.0,0.0,95,0.00,,OVC095,0.00,VWS V14.01,2013-10-17 09:54:00,
2013-10-17 05:59:00,59.7,58.3,29.91,SSE,156,0.0,0.0,95,0.00,,OVC095,0.00,VWS V14.01,2013-10-17 09:59:00,
2013-10-17 06:04:00,59.7,58.6,29.91,SSE,156,0.0,0.0,96,0.00,,OVC160,0.00,VWS V14.01,2013-10-17 10:04:00,
2013-10-17 06:09:00,59.7,58.6,29.91,SSE,156,0.0,0.0,96,0.00,,OVC160,0.00,VWS V14.01,2013-10-17 10:09:00,
2013-10-17 06:14:00,59.7,58.6,29.91,SSE,156,0.0,0.0,96,0.00,,OVC160,0.00,VWS V14.01,2013-10-17 10:14:00,
2013-10-17 06:19:00,59.7,58.6,29.91,SSE,156,0.0,0.0,96,0.00,,OVC160,0.00,VWS V14.01,2013-10-17 10:19:00,
2013-10-17 06:24:00,59.7,58.6,29.91,SSE,156,0.0,0.0,96,0.00,,OVC160,0.00,VWS V14.01,2013-10-17 10:24:00,
2013-10-17 06:29:00,59.7,58.6,29.91,SSE,156,0.0,0.0,96,0.00,,OVC160,0.00,VWS V14.01,2013-10-17 10:29:00,
2013-10-17 06:34:00,59.8,58.7,29.91,SSE,156,0.0,0.0,96,0.00,,OVC160,0.00,VWS V14.01,2013-10-17 10:34:00,
2013-10-17 06:39:00,59.8,58.7,29.91,SSE,156,0.0,0.0,96,0.00,,OVC160,0.00,VWS V14.01,2013-10-17 10:39:00,
2013-10-17 06:44:00,59.9,58.8,29.91,SSE,156,0.0,0.0,96,0.00,,OVC160,0.00,VWS V14.01,2013-10-17 10:44:00,
2013-10-17 06:49:00,59.9,58.8,29.91,SSE,156,0.0,0.0,96,0.00,,OVC160,0.00,VWS V14.01,2013-10-17 10:49:00,
2013-10-17 06:54:00,59.9,58.8,29.91,SSE,156,0.0,0.0,96,0.00,,OVC160,0.00,VWS V14.01,2013-10-17 10:54:00,
2013-10-17 06:59:00,59.9,58.8,29.91,SSE,156,0.0,0.0,96,0.00,,OVC160,0.00,VWS V14.01,2013-10-17 10:59:00,
2013-10-17 07:04:00,59.9,58.8,29.91,SSE,156,0.0,0.0,96,0.00,,OVC090,0.00,VWS V14.01,2013-10-17 11:04:00,
2013-10-17 07:09:00,59.9,58.8,29.91,SSE,156,0.0,0.0,96,0.00,,OVC090,0.00,VWS V14.01,2013-10-17 11:09:00,
2013-10-17 07:14:00,60.0,58.9,29.92,SSE,156,0.0,0.0,96,0.00,,OVC090,0.00,VWS V14.01,2013-10-17 11:14:00,
2013-10-17 07:19:00,60.0,58.9,29.92,SSE,156,0.0,0.0,96,0.00,,OVC090,0.00,VWS V14.01,2013-10-17 11:19:00,
2013-10-17 07:24:00,60.1,59.0,29.91,SSE,156,0.0,0.0,96,0.00,,OVC090,0.00,VWS V14.01,2013-10-17 11:24:00,
2013-10-17 07:29:00,60.1,59.0,29.91,SSE,156,0.0,0.0,96,0.00,,OVC090,0.00,VWS V14.01,2013-10-17 11:29:00,
2013-10-17 07:34:00,60.1,59.0,29.91,SSE,156,0.0,0.0,96,0.00,,OVC090,0.00,VWS V14.01,2013-10-17 11:34:00,
2013-10-17 07:39:00,60.2,59.1,29.91,SSE,156,0.0,0.0,96,0.00,,OVC090,0.00,VWS V14.01,2013-10-17 11:39:00,
2013-10-17 07:44:00,60.2,59.1,29.91,SSE,156,0.0,0.0,96,0.00,,OVC090,0.00,VWS V14.01,2013-10-17 11:44:00,
2013-10-17 07:49:00,60.2,59.1,29.91,SSE,156,0.0,0.0,96,0.00,,OVC090,0.00,VWS V14.01,2013-10-17 11:49:00,
2013-10-17 07:54:00,60.3,59.2,29.91,SSE,156,0.0,0.0,96,0.00,,OVC090,0.00,VWS V14.01,2013-10-17 11:54:00,
2013-10-17 07:59:00,60.3,59.2,29.91,SSE,156,0.0,0.0,96,0.00,,OVC090,0.00,VWS V14.01,2013-10-17 11:59:00,
2013-10-17 08:04:00,60.3,59.2,29.92,SSE,156,0.0,0.0,96,0.00,,OVC090,0.00,VWS V14.01,2013-10-17 12:04:00,
2013-10-17 08:09:00,60.4,59.3,29.91,SSE,156,0.0,0.0,96,0.00,,OVC090,0.00,VWS V14.01,2013-10-17 12:09:00,
2013-10-17 08:14:00,60.4,59.3,29.91,SSE,156,0.0,0.0,96,0.00,,OVC090,0.00,VWS V14.01,2013-10-17 12:14:00,
2013-10-17 08:19:00,60.5,59.4,29.92,SSE,156,0.0,0.0,96,0.00,,OVC090,0.00,VWS V14.01,2013-10-17 12:19:00,
2013-10-17 08:24:00,60.6,59.5,29.92,SSE,156,0.0,0.0,96,0.00,,OVC090,0.00,VWS V14.01,2013-10-17 12:24:00,
2013-10-17 08:29:00,60.7,59.6,29.91,SSE,156,0.0,0.0,96,0.00,,OVC090,0.00,VWS V14.01,2013-10-17 12:29:00,
2013-10-17 08:34:00,60.8,59.7,29.92,SSE,156,0.0,0.0,96,0.00,,OVC090,0.00,VWS V14.01,2013-10-17 12:34:00,
2013-10-17 08:39:00,60.9,59.8,29.92,SSE,156,0.0,0.0,96,0.00,,OVC090,0.00,VWS V14.01,2013-10-17 12:39:00,
2013-10-17 08:44:00,61.0,59.9,29.92,SSE,155,0.0,0.0,96,0.00,,OVC090,0.00,VWS V14.01,2013-10-17 12:44:00,
2013-10-17 08:49:00,61.1,60.0,29.92,SSE,152,0.0,0.0,96,0.00,,OVC090,0.00,VWS V14.01,2013-10-17 12:49:00,
2013-10-17 08:54:00,61.3,60.4,29.92,SSE,152,0.0,0.0,97,0.00,,OVC090,0.00,VWS V14.01,2013-10-17 12:54:00,
2013-10-17 08:59:00,61.4,60.5,29.93,SSE,152,0.0,0.0,97,0.00,,OVC090,0.00,VWS V14.01,2013-10-17 12:59:00,
2013-10-17 09:04:00,61.6,60.5,29.93,SSE,152,0.0,0.0,96,0.00,,OVC090,0.00,VWS V14.01,2013-10-17 13:04:00,
2013-10-17 09:09:00,61.8,60.9,29.92,SSE,152,0.0,0.0,97,0.00,,OVC090,0.00,VWS V14.01,2013-10-17 13:09:00,
2013-10-17 09:14:00,62.1,61.2,29.93,SSE,152,0.0,0.0,97,0.00,,OVC090,0.00,VWS V14.01,2013-10-17 13:14:00,
2013-10-17 09:19:00,62.3,61.4,29.93,SSE,152,0.0,0.0,97,0.00,,OVC090,0.00,VWS V14.01,2013-10-17 13:19:00,
2013-10-17 09:24:00,62.4,61.2,29.93,SSE,152,0.0,0.0,96,0.00,,OVC090,0.00,VWS V14.01,2013-10-17 13:24:00,
2013-10-17 09:29:00,62.6,61.5,29.93,SSE,152,0.0,0.0,96,0.00,,OVC090,0.00,VWS V14.01,2013-10-17 13:29:00,
2013-10-17 09:34:00,62.8,61.7,29.93,SSE,152,0.0,0.0,96,0.00,,OVC090,0.00,VWS V14.01,2013-10-17 13:34:00,
2013-10-17 09:39:00,63.0,61.8,29.93,SSE,152,0.0,0.0,96,0.00,,OVC090,0.00,VWS V14.01,2013-10-17 13:39:00,
2013-10-17 09:44:00,63.2,62.0,29.93,SSE,152,0.0,0.0,96,0.00,,OVC090,0.00,VWS V14.01,2013-10-17 13:44:00,
2013-10-17 09:49:00,63.4,62.2,29.92,SSE,152,0.0,0.0,96,0.00,,OVC090,0.00,VWS V14.01,2013-10-17 13:49:00,
2013-10-17 09:54:00,63.6,62.4,29.92,SSE,152,0.0,0.0,96,0.00,,OVC090,0.00,VWS V14.01,2013-10-17 13:54:00,
2013-10-17 09:59:00,63.8,62.3,29.92,ESE,109,0.0,0.0,95,0.00,,OVC090,0.00,VWS V14.01,2013-10-17 13:59:00,
2013-10-17 10:04:00,63.9,62.4,29.92,ESE,109,0.0,0.0,95,0.00,,OVC090,0.00,VWS V14.01,2013-10-17 14:04:00,
2013-10-17 10:09:00,64.0,62.5,29.92,ESE,109,0.0,0.0,95,0.00,,OVC090,0.00,VWS V14.01,2013-10-17 14:09:00,
2013-10-17 10:14:00,64.2,62.4,29.92,ESE,109,0.0,0.0,94,0.00,,OVC090,0.00,VWS V14.01,2013-10-17 14:14:00,
2013-10-17 10:19:00,64.3,62.5,29.93,ESE,109,0.0,0.0,94,0.00,,OVC090,0.00,VWS V14.01,2013-10-17 14:19:00,
2013-10-17 10:24:00,64.5,62.7,29.92,ESE,109,0.0,0.0,94,0.00,,OVC090,0.00,VWS V14.01,2013-10-17 14:24:00,
2013-10-17 10:29:00,64.7,62.9,29.92,ESE,109,0.0,0.0,94,0.00,,OVC090,0.00,VWS V14.01,2013-10-17 14:29:00,
2013-10-17 10:34:00,64.9,63.1,29.92,ESE,109,0.0,0.0,94,0.00,,OVC090,0.00,VWS V14.01,2013-10-17 14:34:00,
2013-10-17 10:39:00,65.1,63.0,29.92,ESE,109,0.0,0.0,93,0.00,,OVC090,0.00,VWS V14.01,2013-10-17 14:39:00,
2013-10-17 10:44:00,65.2,63.1,29.92,ESE,109,0.0,0.0,93,0.00,,OVC090,0.00,VWS V14.01,2013-10-17 14:44:00,
2013-10-17 10:49:00,65.4,63.3,29.92,ESE,109,0.0,0.0,93,0.00,,OVC090,0.00,VWS V14.01,2013-10-17 14:49:00,
2013-10-17 10:54:00,65.6,63.5,29.92,ESE,109,0.0,0.0,93,0.00,,OVC090,0.00,VWS V14.01,2013-10-17 14:54:00,
2013-10-17 10:59:00,65.7,63.6,29.92,ESE,109,0.0,0.0,93,0.00,,OVC090,0.00,VWS V14.01,2013-10-17 14:59:00,
2013-10-17 11:04:00,65.9,63.8,29.92,ESE,109,0.0,0.0,93,0.00,,OVC100,0.00,VWS V14.01,2013-10-17 15:04:00,
2013-10-17 11:09:00,66.0,63.9,29.92,ESE,110,0.0,0.0,93,0.00,,OVC100,0.00,VWS V14.01,2013-10-17 15:09:00,
2013-10-17 11:14:00,66.2,63.8,29.92,ESE,115,0.0,0.0,92,0.00,,OVC100,0.00,VWS V14.01,2013-10-17 15:14:00,
2013-10-17 11:19:00,66.3,64.2,29.92,ESE,115,0.0,0.0,93,0.01,,OVC100,0.01,VWS V14.01,2013-10-17 15:19:00,
2013-10-17 11:24:00,66.6,64.5,29.92,ESE,115,0.0,0.0,93,0.01,,OVC100,0.01,VWS V14.01,2013-10-17 15:24:00,
2013-10-17 11:29:00,66.7,64.3,29.92,ESE,115,0.0,0.0,92,0.01,,OVC100,0.01,VWS V14.01,2013-10-17 15:29:00,
2013-10-17 11:34:00,66.8,64.1,29.92,ESE,115,0.0,0.0,91,0.01,,OVC100,0.01,VWS V14.01,2013-10-17 15:34:00,
2013-10-17 11:39:00,66.9,64.2,29.92,ESE,115,0.0,0.0,91,0.01,,OVC100,0.01,VWS V14.01,2013-10-17 15:39:00,
2013-10-17 11:44:00,67.0,63.7,29.92,ESE,115,0.0,0.0,89,0.01,,OVC100,0.01,VWS V14.01,2013-10-17 15:44:00,
2013-10-17 11:49:00,67.2,63.5,29.92,ESE,115,0.0,0.0,88,0.01,,OVC100,0.01,VWS V14.01,2013-10-17 15:49:00,
2013-10-17 11:55:00,67.5,64.2,29.91,ESE,115,0.0,0.0,89,0.01,,OVC100,0.01,VWS V14.01,2013-10-17 15:55:00,
2013-10-17 12:00:00,67.9,63.9,29.91,West,269,0.0,0.0,87,0.01,,OVC100,0.01,VWS V14.01,2013-10-17 16:00:00,
2013-10-17 12:05:00,68.3,63.6,29.91,SW,222,1.0,0.0,85,0.01,,-RA,0.01,VWS V14.01,2013-10-17 16:05:00,
2013-10-17 12:10:00,68.7,64.3,29.91,SE,140,0.0,0.0,86,0.01,,-RA,0.01,VWS V14.01,2013-10-17 16:10:00,
2013-10-17 12:15:00,68.9,63.9,29.91,SE,140,0.0,0.0,84,0.01,,-RA,0.01,VWS V14.01,2013-10-17 16:15:00,
2013-10-17 12:20:00,69.1,63.7,29.90,SE,146,0.0,0.0,83,0.00,,-RA,0.01,VWS V14.01,2013-10-17 16:20:00,
2013-10-17 12:25:00,69.3,64.3,29.90,SE,146,0.0,0.0,84,0.00,,-RA,0.01,VWS V14.01,2013-10-17 16:25:00,
2013-10-17 12:30:00,69.4,64.0,29.90,SE,146,0.0,0.0,83,0.00,,-RA,0.01,VWS V14.01,2013-10-17 16:30:00,
2013-10-17 12:35:00,69.5,64.1,29.90,SE,146,0.0,0.0,83,0.00,,-RA,0.01,VWS V14.01,2013-10-17 16:35:00,
2013-10-17 12:40:00,69.6,63.9,29.89,ESE,116,0.0,0.0,82,0.00,,-RA,0.01,VWS V14.01,2013-10-17 16:40:00,
2013-10-17 12:45:00,69.8,63.7,29.89,ESE,116,0.0,0.0,81,0.00,,-RA,0.01,VWS V14.01,2013-10-17 16:45:00,
2013-10-17 12:50:00,70.0,64.3,29.89,East,81,0.0,0.0,82,0.00,,-RA,0.01,VWS V14.01,2013-10-17 16:50:00,
2013-10-17 12:55:00,70.0,63.2,29.89,SW,225,0.0,0.0,79,0.00,,-RA,0.01,VWS V14.01,2013-10-17 16:55:00,
2013-10-17 13:00:00,69.9,63.1,29.88,SW,226,0.0,0.0,79,0.00,,-RA,0.01,VWS V14.01,2013-10-17 17:00:00,
2013-10-17 13:05:00,70.0,63.9,29.88,SW,226,0.0,0.0,81,0.00,,OVC070,0.01,VWS V14.01,2013-10-17 17:05:00,
2013-10-17 13:10:00,70.0,63.5,29.88,SW,226,0.0,0.0,80,0.00,,OVC070,0.01,VWS V14.01,2013-10-17 17:10:00,
2013-10-17 13:15:00,70.0,63.9,29.88,SW,226,0.0,0.0,81,0.00,,OVC070,0.01,VWS V14.01,2013-10-17 17:15:00,
2013-10-17 13:20:00,70.0,63.9,29.88,SW,226,0.0,0.0,81,0.00,,OVC070,0.01,VWS V14.01,2013-10-17 17:20:00,
2013-10-17 13:25:00,70.0,64.6,29.88,SSE,156,0.0,0.0,83,0.00,,OVC070,0.01,VWS V14.01,2013-10-17 17:25:00,
2013-10-17 13:30:00,69.9,64.5,29.88,ESE,110,0.0,0.0,83,0.00,,OVC070,0.01,VWS V14.01,2013-10-17 17:30:00,
2013-10-17 13:35:00,69.8,64.1,29.88,ESE,110,0.0,0.0,82,0.00,,OVC070,0.01,VWS V14.01,2013-10-17 17:35:00,
2013-10-17 13:40:00,69.7,64.0,29.88,ESE,110,0.0,0.0,82,0.00,,OVC070,0.01,VWS V14.01,2013-10-17 17:40:00,
2013-10-17 13:45:00,69.7,64.3,29.88,ESE,110,0.0,0.0,83,0.00,,OVC070,0.01,VWS V14.01,2013-10-17 17:45:00,
2013-10-17 13:50:00,69.8,64.4,29.87,ESE,110,0.0,0.0,83,0.00,,OVC070,0.01,VWS V14.01,2013-10-17 17:50:00,
2013-10-17 13:55:00,69.8,64.4,29.87,ESE,110,0.0,0.0,83,0.00,,OVC070,0.01,VWS V14.01,2013-10-17 17:55:00,
2013-10-17 14:00:00,69.8,64.8,29.87,ESE,110,0.0,0.0,84,0.00,,OVC070,0.01,VWS V14.01,2013-10-17 18:00:00,
2013-10-17 14:05:00,69.8,64.8,29.86,ESE,110,0.0,0.0,84,0.00,,OVC044,0.01,VWS V14.01,2013-10-17 18:05:00,
2013-10-17 14:10:00,69.7,64.0,29.87,ESE,110,0.0,0.0,82,0.00,,OVC044,0.01,VWS V14.01,2013-10-17 18:10:00,
2013-10-17 14:15:00,69.8,64.4,29.87,ESE,110,0.0,0.0,83,0.00,,OVC044,0.01,VWS V14.01,2013-10-17 18:15:00,
2013-10-17 14:20:00,69.7,64.3,29.86,ESE,110,0.0,0.0,83,0.00,,OVC044,0.01,VWS V14.01,2013-10-17 18:20:00,
2013-10-17 14:25:00,69.7,64.0,29.86,ESE,110,0.0,0.0,82,0.00,,OVC044,0.01,VWS V14.01,2013-10-17 18:25:00,
2013-10-17 14:30:00,69.7,63.6,29.86,SE,129,0.0,0.0,81,0.00,,OVC044,0.01,VWS V14.01,2013-10-17 18:30:00,
2013-10-17 14:35:00,69.8,64.1,29.86,SE,129,0.0,0.0,82,0.00,,OVC044,0.01,VWS V14.01,2013-10-17 18:35:00,
2013-10-17 14:40:00,69.9,63.8,29.86,SE,132,0.0,0.0,81,0.00,,OVC044,0.01,VWS V14.01,2013-10-17 18:40:00,
2013-10-17 14:45:00,70.0,64.3,29.86,SE,132,0.0,0.0,82,0.00,,OVC044,0.01,VWS V14.01,2013-10-17 18:45:00,
2013-10-17 14:50:00,70.0,64.6,29.86,SE,142,2.0,0.0,83,0.00,,OVC044,0.01,VWS V14.01,2013-10-17 18:50:00,
2013-10-17 14:55:00,70.0,64.3,29.86,SE,142,0.0,0.0,82,0.00,,OVC044,0.01,VWS V14.01,2013-10-17 18:55:00,
2013-10-17 15:00:00,69.9,64.2,29.86,SE,142,0.0,0.0,82,0.00,,OVC042,0.01,VWS V14.01,2013-10-17 19:00:00,
2013-10-17 15:05:00,69.9,63.8,29.85,SE,142,0.0,0.0,81,0.00,,OVC042,0.01,VWS V14.01,2013-10-17 19:05:00,
2013-10-17 15:10:00,69.9,63.8,29.85,SE,142,0.0,0.0,81,0.00,,OVC042,0.01,VWS V14.01,2013-10-17 19:10:00,
2013-10-17 15:15:00,69.9,64.2,29.85,SE,142,0.0,0.0,82,0.00,,OVC042,0.01,VWS V14.01,2013-10-17 19:15:00,
2013-10-17 15:20:00,69.9,63.8,29.85,SE,142,0.0,0.0,81,0.00,,OVC042,0.01,VWS V14.01,2013-10-17 19:20:00,
2013-10-17 15:25:00,69.9,64.2,29.85,SE,142,0.0,0.0,82,0.00,,OVC042,0.01,VWS V14.01,2013-10-17 19:25:00,
2013-10-17 15:30:00,69.8,63.7,29.85,SE,142,0.0,0.0,81,0.00,,OVC042,0.01,VWS V14.01,2013-10-17 19:30:00,
2013-10-17 15:35:00,69.8,63.7,29.85,SE,142,0.0,0.0,81,0.00,,OVC042,0.01,VWS V14.01,2013-10-17 19:35:00,
2013-10-17 15:38:00,69.7,64.0,29.85,SE,142,0.0,0.0,82,0.00,,OVC042,0.01,VWS V14.01,2013-10-17 19:38:00,
2013-10-17 15:43:00,69.7,64.3,29.85,SE,142,0.0,0.0,83,0.00,,OVC042,0.01,VWS V14.01,2013-10-17 19:43:00,
2013-10-17 15:48:00,69.7,64.7,29.85,SE,142,0.0,0.0,84,0.00,,OVC042,0.01,VWS V14.01,2013-10-17 19:48:00,
2013-10-17 15:54:00,69.5,64.5,29.85,SE,142,0.0,0.0,84,0.00,,OVC042,0.01,VWS V14.01,2013-10-17 19:54:00,
2013-10-17 15:59:00,69.4,64.4,29.85,SE,142,0.0,0.0,84,0.00,,OVC042,0.01,VWS V14.01,2013-10-17 19:59:00,
2013-10-17 16:04:00,69.3,64.6,29.85,SE,142,0.0,0.0,85,0.00,,-RA,0.01,VWS V14.01,2013-10-17 20:04:00,
2013-10-17 16:09:00,69.1,64.7,29.85,SE,142,0.0,0.0,86,0.00,,-RA,0.01,VWS V14.01,2013-10-17 20:09:00,
2013-10-17 16:15:00,68.8,64.8,29.85,SE,142,0.0,0.0,87,0.00,,-RA,0.01,VWS V14.01,2013-10-17 20:15:00,
2013-10-17 16:20:00,68.6,64.9,29.85,SE,142,0.0,0.0,88,0.01,,-RA,0.02,VWS V14.01,2013-10-17 20:20:00,
2013-10-17 16:25:00,68.5,65.1,29.85,SE,142,0.0,0.0,89,0.01,,-RA,0.02,VWS V14.01,2013-10-17 20:25:00,
2013-10-17 16:30:00,68.3,65.3,29.85,SE,142,0.0,0.0,90,0.01,,-RA,0.02,VWS V14.01,2013-10-17 20:30:00,
2013-10-17 16:35:00,68.1,65.1,29.85,SE,142,0.0,0.0,90,0.01,,-RA,0.02,VWS V14.01,2013-10-17 20:35:00,
2013-10-17 16:40:00,67.9,65.5,29.85,SE,142,0.0,0.0,92,0.01,,-RA,0.02,VWS V14.01,2013-10-17 20:40:00,
2013-10-17 16:45:00,67.7,65.3,29.85,SE,142,0.0,0.0,92,0.01,,-RA,0.02,VWS V14.01,2013-10-17 20:45:00,
2013-10-17 16:51:00,67.6,65.2,29.85,SE,142,0.0,0.0,92,0.01,,-RA,0.02,VWS V14.01,2013-10-17 20:51:00,
2013-10-17 16:56:00,67.5,65.4,29.84,SE,142,0.0,0.0,93,0.02,,-RA,0.03,VWS V14.01,2013-10-17 20:56:00,
2013-10-17 17:01:00,67.4,65.6,29.84,SE,142,0.0,0.0,94,0.02,,-RA,0.03,VWS V14.01,2013-10-17 21:01:00,
2013-10-17 17:06:00,67.2,65.1,29.84,SE,142,0.0,0.0,93,0.02,,-RA,0.03,VWS V14.01,2013-10-17 21:06:00,
2013-10-17 17:11:00,67.1,65.0,29.84,SE,144,0.0,0.0,93,0.03,,-RA,0.04,VWS V14.01,2013-10-17 21:11:00,
2013-10-17 17:16:00,67.0,65.2,29.84,SE,144,0.0,0.0,94,0.03,,-RA,0.04,VWS V14.01,2013-10-17 21:16:00,
2013-10-17 17:21:00,67.0,65.2,29.84,SE,144,0.0,0.0,94,0.02,,-RA,0.04,VWS V14.01,2013-10-17 21:21:00,
2013-10-17 17:26:00,66.8,65.0,29.84,SE,144,0.0,0.0,94,0.02,,-RA,0.04,VWS V14.01,2013-10-17 21:26:00,
2013-10-17 17:31:00,66.7,64.9,29.85,SE,146,0.0,0.0,94,0.02,,-RA,0.04,VWS V14.01,2013-10-17 21:31:00,
2013-10-17 17:36:00,66.7,64.9,29.85,South,171,3.0,0.0,94,0.02,,-RA,0.04,VWS V14.01,2013-10-17 21:36:00,
2013-10-17 17:41:00,66.5,64.7,29.85,South,172,0.0,0.0,94,0.02,,-RA,0.04,VWS V14.01,2013-10-17 21:41:00,
2013-10-17 17:46:00,66.4,64.6,29.85,South,172,0.0,0.0,94,0.02,,-RA,0.04,VWS V14.01,2013-10-17 21:46:00,
2013-10-17 17:51:00,66.3,64.8,29.84,ENE,61,0.0,0.0,95,0.02,,-RA,0.04,VWS V14.01,2013-10-17 21:51:00,
2013-10-17 17:56:00,66.2,64.7,29.84,ESE,116,0.0,0.0,95,0.01,,-RA,0.04,VWS V14.01,2013-10-17 21:56:00,
2013-10-17 18:01:00,66.2,64.7,29.84,SSE,148,0.0,0.0,95,0.01,,BKN180,0.04,VWS V14.01,2013-10-17 22:01:00,
2013-10-17 18:06:00,66.1,64.6,29.84,SSE,166,0.0,0.0,95,0.01,,BKN180,0.04,VWS V14.01,2013-10-17 22:06:00,
2013-10-17 18:11:00,66.1,64.6,29.84,SSE,167,0.0,0.0,95,0.00,,BKN180,0.04,VWS V14.01,2013-10-17 22:11:00,
2013-10-17 18:16:00,66.1,64.6,29.84,SSE,161,0.0,0.0,95,0.00,,BKN180,0.04,VWS V14.01,2013-10-17 22:16:00,
2013-10-17 18:21:00,66.0,64.5,29.84,SSE,161,0.0,0.0,95,0.00,,BKN180,0.04,VWS V14.01,2013-10-17 22:21:00,
2013-10-17 18:26:00,66.0,64.5,29.84,SE,142,0.0,0.0,95,0.00,,BKN180,0.04,VWS V14.01,2013-10-17 22:26:00,
2013-10-17 18:31:00,65.9,64.4,29.84,ENE,74,0.0,0.0,95,0.00,,BKN180,0.04,VWS V14.01,2013-10-17 22:31:00,
2013-10-17 18:36:00,65.9,64.4,29.84,SSE,147,0.0,0.0,95,0.00,,BKN180,0.04,VWS V14.01,2013-10-17 22:36:00,
2013-10-17 18:41:00,65.9,64.4,29.84,West,262,1.0,0.0,95,0.00,,BKN180,0.04,VWS V14.01,2013-10-17 22:41:00,
2013-10-17 18:46:00,65.9,64.4,29.84,West,260,0.0,0.0,95,0.00,,BKN180,0.04,VWS V14.01,2013-10-17 22:46:00,
2013-10-17 18:51:00,65.9,64.4,29.84,South,184,0.0,0.0,95,0.00,,BKN180,0.04,VWS V14.01,2013-10-17 22:51:00,
2013-10-17 18:56:00,65.9,64.4,29.84,SSE,156,0.0,0.0,95,0.00,,BKN180,0.04,VWS V14.01,2013-10-17 22:56:00,
2013-10-17 19:01:00,65.9,64.4,29.84,SE,136,0.0,0.0,95,0.00,,OVC021,0.04,VWS V14.01,2013-10-17 23:01:00,
2013-10-17 19:06:00,65.8,64.3,29.84,SE,140,0.0,0.0,95,0.00,,OVC021,0.04,VWS V14.01,2013-10-17 23:06:00,
2013-10-17 19:11:00,65.8,64.3,29.84,SE,140,0.0,0.0,95,0.00,,OVC021,0.04,VWS V14.01,2013-10-17 23:11:00,
2013-10-17 19:16:00,65.8,64.6,29.84,SE,140,0.0,0.0,96,0.00,,OVC021,0.04,VWS V14.01,2013-10-17 23:16:00,
2013-10-17 19:21:00,65.8,64.6,29.84,ESE,111,0.0,0.0,96,0.00,,OVC021,0.04,VWS V14.01,2013-10-17 23:21:00,
2013-10-17 19:26:00,65.8,64.6,29.84,ESE,111,0.0,0.0,96,0.00,,OVC021,0.04,VWS V14.01,2013-10-17 23:26:00,
2013-10-17 19:31:00,65.8,64.6,29.84,ESE,111,0.0,0.0,96,0.00,,OVC021,0.04,VWS V14.01,2013-10-17 23:31:00,
2013-10-17 19:36:00,65.8,64.6,29.84,ESE,111,0.0,0.0,96,0.00,,OVC021,0.04,VWS V14.01,2013-10-17 23:36:00,
2013-10-17 19:41:00,65.7,64.5,29.84,SE,136,0.0,0.0,96,0.00,,OVC021,0.04,VWS V14.01,2013-10-17 23:41:00,
2013-10-17 19:46:00,65.7,64.5,29.84,SE,136,0.0,0.0,96,0.00,,OVC021,0.04,VWS V14.01,2013-10-17 23:46:00,
2013-10-17 19:51:00,65.6,64.4,29.84,SE,136,0.0,0.0,96,0.00,,OVC021,0.04,VWS V14.01,2013-10-17 23:51:00,
2013-10-17 19:56:00,65.6,64.4,29.84,SE,136,0.0,0.0,96,0.00,,OVC021,0.04,VWS V14.01,2013-10-17 23:56:00,
2013-10-17 20:01:00,65.5,64.0,29.84,SE,136,0.0,0.0,95,0.00,,OVC018,0.04,VWS V14.01,2013-10-18 00:01:00,
2013-10-17 20:06:00,65.5,64.3,29.85,SE,136,0.0,0.0,96,0.00,,OVC018,0.04,VWS V14.01,2013-10-18 00:06:00,
2013-10-17 20:11:00,65.5,64.3,29.85,SE,136,0.0,0.0,96,0.00,,OVC018,0.04,VWS V14.01,2013-10-18 00:11:00,
2013-10-17 20:16:00,65.5,64.3,29.85,SE,136,0.0,0.0,96,0.00,,OVC018,0.04,VWS V14.01,2013-10-18 00:16:00,
2013-10-17 20:21:00,65.5,64.3,29.85,SE,136,0.0,0.0,96,0.00,,OVC018,0.04,VWS V14.01,2013-10-18 00:21:00,
2013-10-17 20:26:00,65.5,64.3,29.85,SE,136,0.0,0.0,96,0.00,,OVC018,0.04,VWS V14.01,2013-10-18 00:26:00,
2013-10-17 20:31:00,65.5,64.3,29.86,SE,136,0.0,0.0,96,0.00,,OVC012,0.04,VWS V14.01,2013-10-18 00:31:00,
2013-10-17 20:36:00,65.6,64.4,29.86,SE,136,0.0,0.0,96,0.00,,OVC012,0.04,VWS V14.01,2013-10-18 00:36:00,
2013-10-17 20:41:00,65.6,64.4,29.86,SE,136,0.0,0.0,96,0.00,,OVC012,0.04,VWS V14.01,2013-10-18 00:41:00,
2013-10-17 20:46:00,65.6,64.4,29.86,SE,136,0.0,0.0,96,0.00,,OVC012,0.04,VWS V14.01,2013-10-18 00:46:00,
2013-10-17 20:51:00,65.6,64.4,29.86,SE,136,0.0,0.0,96,0.00,,OVC012,0.04,VWS V14.01,2013-10-18 00:51:00,
2013-10-17 20:56:00,65.6,64.4,29.86,SE,136,0.0,0.0,96,0.00,,OVC012,0.04,VWS V14.01,2013-10-18 00:56:00,
2013-10-17 21:01:00,65.6,64.4,29.86,SE,136,0.0,0.0,96,0.00,,OVC012,0.04,VWS V14.01,2013-10-18 01:01:00,
2013-10-17 21:06:00,65.6,64.4,29.86,SE,136,0.0,0.0,96,0.00,,OVC012,0.04,VWS V14.01,2013-10-18 01:06:00,
2013-10-17 21:11:00,65.6,64.4,29.86,SE,136,0.0,0.0,96,0.00,,OVC012,0.04,VWS V14.01,2013-10-18 01:11:00,
2013-10-17 21:16:00,65.7,64.5,29.86,SE,136,0.0,0.0,96,0.00,,OVC012,0.04,VWS V14.01,2013-10-18 01:16:00,
2013-10-17 21:21:00,65.7,64.8,29.86,SE,136,0.0,0.0,97,0.00,,OVC012,0.04,VWS V14.01,2013-10-18 01:21:00,
2013-10-17 21:26:00,65.7,64.8,29.86,SE,136,0.0,0.0,97,0.00,,OVC012,0.04,VWS V14.01,2013-10-18 01:26:00,
2013-10-17 21:31:00,65.7,64.8,29.86,SE,136,0.0,0.0,97,0.00,,OVC012,0.04,VWS V14.01,2013-10-18 01:31:00,
2013-10-17 21:37:00,65.7,64.8,29.86,SE,136,0.0,0.0,97,0.00,,OVC012,0.04,VWS V14.01,2013-10-18 01:37:00,
2013-10-17 21:42:00,65.7,64.8,29.86,SE,136,0.0,0.0,97,0.00,,OVC012,0.04,VWS V14.01,2013-10-18 01:42:00,
2013-10-17 21:47:00,65.8,64.9,29.86,SE,136,0.0,0.0,97,0.00,,OVC012,0.04,VWS V14.01,2013-10-18 01:47:00,
2013-10-17 21:52:00,65.8,64.9,29.87,SE,136,0.0,0.0,97,0.00,,OVC012,0.04,VWS V14.01,2013-10-18 01:52:00,
2013-10-17 21:57:00,65.7,64.8,29.87,SE,136,0.0,0.0,97,0.00,,OVC012,0.04,VWS V14.01,2013-10-18 01:57:00,
2013-10-17 22:02:00,65.8,64.9,29.87,SE,136,0.0,0.0,97,0.00,,OVC014,0.04,VWS V14.01,2013-10-18 02:02:00,
2013-10-17 22:07:00,65.8,64.9,29.87,SE,136,0.0,0.0,97,0.00,,OVC014,0.04,VWS V14.01,2013-10-18 02:07:00,
2013-10-17 22:12:00,65.8,64.9,29.87,SE,136,0.0,0.0,97,0.00,,OVC014,0.04,VWS V14.01,2013-10-18 02:12:00,
2013-10-17 22:17:00,65.8,64.9,29.87,SE,136,0.0,0.0,97,0.00,,OVC014,0.04,VWS V14.01,2013-10-18 02:17:00,
2013-10-17 22:22:00,65.8,64.9,29.87,SE,136,0.0,0.0,97,0.00,,OVC014,0.04,VWS V14.01,2013-10-18 02:22:00,
2013-10-17 22:27:00,65.7,64.8,29.87,SE,136,0.0,0.0,97,0.00,,OVC014,0.04,VWS V14.01,2013-10-18 02:27:00,
2013-10-17 22:32:00,65.7,64.5,29.87,SE,136,0.0,0.0,96,0.00,,OVC014,0.04,VWS V14.01,2013-10-18 02:32:00,
2013-10-17 22:37:00,65.7,64.5,29.87,SE,136,0.0,0.0,96,0.00,,OVC014,0.04,VWS V14.01,2013-10-18 02:37:00,
2013-10-17 22:42:00,65.6,64.4,29.87,SE,136,0.0,0.0,96,0.00,,OVC014,0.04,VWS V14.01,2013-10-18 02:42:00,
2013-10-17 22:47:00,65.6,64.7,29.87,SE,136,0.0,0.0,97,0.00,,OVC014,0.04,VWS V14.01,2013-10-18 02:47:00,
2013-10-17 22:52:00,65.6,64.7,29.87,SE,136,0.0,0.0,97,0.00,,OVC014,0.04,VWS V14.01,2013-10-18 02:52:00,
2013-10-17 22:57:00,65.7,64.8,29.87,SE,136,0.0,0.0,97,0.00,,OVC014,0.04,VWS V14.01,2013-10-18 02:57:00,
2013-10-17 23:02:00,65.7,64.8,29.87,SE,136,0.0,0.0,97,0.00,,OVC016,0.04,VWS V14.01,2013-10-18 03:02:00,
2013-10-17 23:07:00,65.7,64.8,29.87,SE,136,0.0,0.0,97,0.00,,OVC016,0.04,VWS V14.01,2013-10-18 03:07:00,
2013-10-17 23:12:00,65.8,64.9,29.87,SE,136,0.0,0.0,97,0.00,,OVC016,0.04,VWS V14.01,2013-10-18 03:12:00,
2013-10-17 23:17:00,65.8,64.9,29.87,SE,136,0.0,0.0,97,0.00,,OVC016,0.04,VWS V14.01,2013-10-18 03:17:00,
2013-10-17 23:22:00,65.8,64.9,29.87,SE,136,0.0,0.0,97,0.00,,OVC016,0.04,VWS V14.01,2013-10-18 03:22:00,
2013-10-17 23:27:00,65.8,64.9,29.87,SE,136,0.0,0.0,97,0.00,,OVC016,0.04,VWS V14.01,2013-10-18 03:27:00,
2013-10-17 23:32:00,65.8,64.9,29.87,SE,136,0.0,0.0,97,0.00,,OVC016,0.04,VWS V14.01,2013-10-18 03:32:00,
2013-10-17 23:37:00,65.8,64.9,29.87,SE,136,0.0,0.0,97,0.00,,OVC016,0.04,VWS V14.01,2013-10-18 03:37:00,
2013-10-17 23:42:00,65.8,64.9,29.87,SE,136,0.0,0.0,97,0.00,,OVC016,0.04,VWS V14.01,2013-10-18 03:42:00,
2013-10-17 23:47:00,65.8,64.9,29.87,SE,136,0.0,0.0,97,0.00,,OVC016,0.04,VWS V14.01,2013-10-18 03:47:00,
2013-10-17 23:52:00,65.8,64.9,29.87,SE,136,0.0,0.0,97,0.00,,OVC016,0.04,VWS V14.01,2013-10-18 03:52:00,
2013-10-17 23:57:00,65.8,64.9,29.87,SE,136,0.0,0.0,97,0.00,,OVC016,0.04,VWS V14.01,2013-10-18 03:57:00,